createdAt,value
2022-09-03T00:00:28.208Z,95993.13
2022-09-03T00:03:01.758Z,95996.31
2022-09-03T00:05:38.498Z,95981.59
2022-09-03T00:08:11.862Z,95962.56
2022-09-03T00:10:46.935Z,95988.72
2022-09-03T00:13:18.522Z,95972.34
2022-09-03T00:15:46.824Z,95990.59
2022-09-03T00:18:17.689Z,95979.94
2022-09-03T00:20:52.894Z,95980.13
2022-09-03T00:23:23.778Z,95985.69
2022-09-03T00:25:55.807Z,95951.28
2022-09-03T00:28:29.997Z,95972.28
2022-09-03T00:31:06.814Z,95973.91
2022-09-03T00:33:35.504Z,95977.28
2022-09-03T00:36:12.438Z,95982.28
2022-09-03T00:38:41.073Z,95968.22
2022-09-03T00:41:11.642Z,95989.16
2022-09-03T00:43:52.980Z,95974.38
2022-09-03T00:46:26.152Z,95986.97
2022-09-03T00:49:10.967Z,95987.13
2022-09-03T00:51:44.893Z,95980.44
2022-09-03T00:54:19.776Z,95994.06
2022-09-03T00:56:52.480Z,95986.19
2022-09-03T00:59:32.344Z,95985.34
2022-09-03T01:02:09.414Z,95988.34
2022-09-03T01:04:45.284Z,95966.13
2022-09-03T01:07:23.983Z,95984.16
2022-09-03T01:09:56.612Z,95981.34
2022-09-03T01:12:32.803Z,95974.97
2022-09-03T01:15:08.874Z,95975.31
2022-09-03T01:17:45.395Z,95974.22
2022-09-03T01:20:29.843Z,95972.84
2022-09-03T01:23:30.549Z,95972.06
2022-09-03T01:26:08.640Z,95967.72
2022-09-03T01:28:49.014Z,95960.78
2022-09-03T01:31:24.373Z,95971.34
2022-09-03T01:33:58.067Z,95960.28
2022-09-03T01:36:33.964Z,95966.91
2022-09-03T01:39:04.804Z,95963.03
2022-09-03T01:42:00.374Z,95936.28
2022-09-03T01:44:39.531Z,95973.78
2022-09-03T01:47:15.053Z,95965.50
2022-09-03T01:49:50.089Z,95984.03
2022-09-03T01:52:24.576Z,95969.88
2022-09-03T01:55:02.434Z,95977.84
2022-09-03T01:57:49.759Z,95979.34
2022-09-03T02:00:20.764Z,95969.28
2022-09-03T02:02:51.305Z,95976.72
2022-09-03T02:05:24.918Z,95987.19
2022-09-03T02:07:58.110Z,95975.28
2022-09-03T02:10:31.686Z,95981.47
2022-09-03T02:13:02.003Z,95982.03
2022-09-03T02:15:34.719Z,95979.66
2022-09-03T02:18:04.379Z,95972.91
2022-09-03T02:20:32.734Z,95976.94
2022-09-03T02:23:00.966Z,95986.16
2022-09-03T02:25:32.988Z,95989.91
2022-09-03T02:28:01.325Z,95979.59
2022-09-03T02:30:29.820Z,95982.84
2022-09-03T02:33:00.220Z,95991.50
2022-09-03T02:35:28.802Z,95995.66
2022-09-03T02:37:57.067Z,95997.59
2022-09-03T02:40:25.567Z,96000.75
2022-09-03T02:42:53.974Z,95990.59
2022-09-03T02:45:26.288Z,95997.34
2022-09-03T02:47:57.554Z,95989.78
2022-09-03T02:50:28.125Z,95979.78
2022-09-03T02:52:56.371Z,95979.50
2022-09-03T02:55:24.543Z,95981.94
2022-09-03T02:57:54.694Z,95988.16
2022-09-03T03:00:23.007Z,95982.91
2022-09-03T03:02:52.526Z,95968.13
2022-09-03T03:05:28.049Z,95976.53
2022-09-03T03:07:56.239Z,95977.03
2022-09-03T03:10:26.894Z,95980.66
2022-09-03T03:12:55.067Z,95976.72
2022-09-03T03:15:23.339Z,95971.84
2022-09-03T03:17:51.589Z,95975.22
2022-09-03T03:20:19.686Z,95978.72
2022-09-03T03:22:49.301Z,95975.50
2022-09-03T03:25:17.563Z,95985.50
2022-09-03T03:27:46.856Z,95988.19
2022-09-03T03:30:15.716Z,95987.34
2022-09-03T03:32:43.856Z,95996.50
2022-09-03T03:35:11.995Z,96000.94
2022-09-03T03:37:40.162Z,95958.28
2022-09-03T03:40:11.006Z,95984.78
2022-09-03T03:42:39.260Z,95985.84
2022-09-03T03:45:08.070Z,95957.38
2022-09-03T03:47:36.252Z,95993.44
2022-09-03T03:50:04.671Z,95992.34
2022-09-03T03:52:32.874Z,95987.34
2022-09-03T03:55:01.069Z,95991.19
2022-09-03T03:57:32.312Z,95993.19
2022-09-03T04:00:00.438Z,95988.31
2022-09-03T04:02:28.814Z,95984.78
2022-09-03T04:04:57.307Z,95976.53
2022-09-03T04:07:27.215Z,95968.50
2022-09-03T04:09:55.483Z,95974.69
2022-09-03T04:12:23.770Z,95980.38
2022-09-03T04:14:53.340Z,95976.44
2022-09-03T04:17:25.099Z,95974.09
2022-09-03T04:19:53.862Z,95974.94
2022-09-03T04:22:22.018Z,95981.44
2022-09-03T04:24:50.276Z,95983.31
2022-09-03T04:27:18.462Z,95958.84
2022-09-03T04:29:46.698Z,95953.25
2022-09-03T04:32:33.665Z,95990.94
2022-09-03T04:35:01.912Z,95978.84
2022-09-03T04:37:30.390Z,95993.81
2022-09-03T04:39:59.245Z,95964.53
2022-09-03T04:42:27.440Z,95994.84
2022-09-03T04:44:56.075Z,95990.50
2022-09-03T04:47:25.693Z,96002.19
2022-09-03T04:49:54.461Z,96001.22
2022-09-03T04:52:22.696Z,95993.19
2022-09-03T04:54:50.916Z,95994.53
2022-09-03T04:57:19.160Z,96007.84
2022-09-03T04:59:47.485Z,96004.06
2022-09-03T05:02:16.617Z,96004.63
2022-09-03T05:04:47.299Z,96005.75
2022-09-03T05:07:15.526Z,96013.31
2022-09-03T05:09:43.771Z,95973.66
2022-09-03T05:12:13.371Z,96013.06
2022-09-03T05:14:41.591Z,96013.25
2022-09-03T05:17:09.758Z,95972.78
2022-09-03T05:19:51.890Z,96008.03
2022-09-03T05:22:38.765Z,96007.25
2022-09-03T05:25:07.997Z,95993.16
2022-09-03T05:27:36.257Z,96001.47
2022-09-03T05:30:05.035Z,95999.47
2022-09-03T05:32:33.463Z,95985.63
2022-09-03T05:35:03.010Z,96008.84
2022-09-03T05:37:31.434Z,96009.25
2022-09-03T05:39:59.599Z,96017.13
2022-09-03T05:42:28.432Z,96000.53
2022-09-03T05:44:57.575Z,96007.19
2022-09-03T05:47:26.055Z,96002.63
2022-09-03T05:49:54.288Z,95997.22
2022-09-03T05:52:23.899Z,95995.75
2022-09-03T05:54:52.091Z,96007.00
2022-09-03T05:57:20.617Z,96009.75
2022-09-03T05:59:48.833Z,96012.47
2022-09-03T06:02:19.764Z,96019.97
2022-09-03T06:04:49.168Z,96007.78
2022-09-03T06:07:17.366Z,96006.03
2022-09-03T06:09:46.927Z,96001.41
2022-09-03T06:12:15.109Z,96001.97
2022-09-03T06:14:43.591Z,95995.47
2022-09-03T06:17:13.033Z,95998.72
2022-09-03T06:19:41.232Z,95999.66
2022-09-03T06:22:09.367Z,96001.00
2022-09-03T06:24:37.659Z,95995.16
2022-09-03T06:27:08.432Z,96004.06
2022-09-03T06:29:37.078Z,95997.81
2022-09-03T06:32:05.526Z,95995.09
2022-09-03T06:34:33.776Z,95995.88
2022-09-03T06:37:02.101Z,95995.03
2022-09-03T06:39:30.837Z,95989.84
2022-09-03T06:41:59.174Z,95994.09
2022-09-03T06:44:28.929Z,95988.09
2022-09-03T06:47:00.460Z,95991.72
2022-09-03T06:49:28.557Z,95989.16
2022-09-03T06:51:56.898Z,95994.66
2022-09-03T06:54:25.278Z,95986.69
2022-09-03T06:56:53.441Z,95984.91
2022-09-03T06:59:21.527Z,95971.44
2022-09-03T07:02:02.648Z,95988.44
2022-09-03T07:04:49.949Z,95987.78
2022-09-03T07:07:18.875Z,95981.53
2022-09-03T07:09:48.441Z,95985.38
2022-09-03T07:12:18.358Z,95983.84
2022-09-03T07:14:48.376Z,95986.72
2022-09-03T07:17:20.673Z,95990.88
2022-09-03T07:19:48.746Z,95993.31
2022-09-03T07:22:16.984Z,95988.97
2022-09-03T07:24:47.701Z,95953.72
2022-09-03T07:27:15.925Z,95979.88
2022-09-03T07:29:45.105Z,95986.22
2022-09-03T07:32:13.697Z,95983.97
2022-09-03T07:34:43.949Z,95992.66
2022-09-03T07:37:12.257Z,95985.75
2022-09-03T07:39:41.466Z,95983.00
2022-09-03T07:42:11.113Z,95984.47
2022-09-03T07:44:39.731Z,95979.47
2022-09-03T07:47:08.148Z,95979.63
2022-09-03T07:49:36.734Z,95981.75
2022-09-03T07:52:07.596Z,95987.44
2022-09-03T07:54:41.948Z,95978.38
2022-09-03T07:57:10.127Z,95975.13
2022-09-03T07:59:38.367Z,95973.50
2022-09-03T08:02:08.615Z,95976.09
2022-09-03T08:04:38.891Z,95984.06
2022-09-03T08:07:10.049Z,95992.94
2022-09-03T08:09:40.103Z,95988.72
2022-09-03T08:12:09.256Z,95995.50
2022-09-03T08:14:37.357Z,96001.94
2022-09-03T08:17:07.471Z,95995.31
2022-09-03T08:19:36.169Z,96002.44
2022-09-03T08:22:04.389Z,96001.78
2022-09-03T08:24:35.919Z,95970.53
2022-09-03T08:27:06.103Z,96013.03
2022-09-03T08:29:35.954Z,96014.47
2022-09-03T08:32:05.775Z,96012.00
2022-09-03T08:34:34.069Z,96018.47
2022-09-03T08:37:02.550Z,96006.44
2022-09-03T08:39:32.219Z,96022.31
2022-09-03T08:42:28.679Z,96013.13
2022-09-03T08:44:58.631Z,96011.88
2022-09-03T08:47:29.875Z,96018.31
2022-09-03T08:50:00.025Z,95994.03
2022-09-03T08:52:32.626Z,95997.09
2022-09-03T08:55:19.200Z,96003.16
2022-09-03T08:57:50.837Z,96008.75
2022-09-03T09:00:19.418Z,95994.69
2022-09-03T09:03:00.154Z,95995.31
2022-09-03T09:05:38.947Z,95997.75
2022-09-03T09:08:13.253Z,95975.28
2022-09-03T09:10:47.016Z,95992.03
2022-09-03T09:13:22.351Z,96000.16
2022-09-03T09:15:57.488Z,96010.03
2022-09-03T09:18:32.768Z,95997.16
2022-09-03T09:21:09.978Z,95996.03
2022-09-03T09:23:42.976Z,95994.81
2022-09-03T09:26:15.183Z,95962.13
2022-09-03T09:28:49.451Z,95997.28
2022-09-03T09:31:20.353Z,95981.75
2022-09-03T09:33:48.532Z,95958.78
2022-09-03T09:36:19.435Z,95986.03
2022-09-03T09:38:48.947Z,95983.72
2022-09-03T09:41:19.459Z,95980.81
2022-09-03T09:43:49.492Z,95988.31
2022-09-03T09:46:23.025Z,95988.44
2022-09-03T09:48:53.409Z,95971.78
2022-09-03T09:51:23.724Z,95972.75
2022-09-03T09:54:02.805Z,95981.75
2022-09-03T09:56:31.644Z,95980.00
2022-09-03T09:59:09.534Z,95975.75
2022-09-03T10:01:39.874Z,95959.97
2022-09-03T10:04:13.357Z,95955.19
2022-09-03T10:06:58.098Z,95959.69
2022-09-03T10:09:31.041Z,95954.91
2022-09-03T10:12:14.754Z,95980.91
2022-09-03T10:14:49.718Z,95974.06
2022-09-03T10:17:26.607Z,95977.56
2022-09-03T10:20:31.735Z,95976.75
2022-09-03T10:23:11.011Z,95982.38
2022-09-03T10:25:53.898Z,95974.38
2022-09-03T10:28:25.151Z,95971.19
2022-09-03T10:31:37.659Z,95978.72
2022-09-03T10:34:15.175Z,95983.09
2022-09-03T10:36:50.923Z,95951.53
2022-09-03T10:39:23.748Z,95971.22
2022-09-03T10:42:03.614Z,95955.25
2022-09-03T10:44:43.923Z,95977.31
2022-09-03T10:47:35.971Z,95981.13
2022-09-03T10:50:16.548Z,95887.06
2022-09-03T10:53:01.484Z,95966.56
2022-09-03T10:55:35.999Z,95969.59
2022-09-03T10:58:26.693Z,95983.94
2022-09-03T11:00:58.467Z,95952.41
2022-09-03T11:03:39.142Z,95984.25
2022-09-03T11:06:12.577Z,95986.81
2022-09-03T11:08:44.299Z,95984.34
2022-09-03T11:11:16.862Z,95983.97
2022-09-03T11:13:50.048Z,95959.75
2022-09-03T11:16:20.914Z,95984.50
2022-09-03T11:18:51.845Z,95987.75
2022-09-03T11:21:23.749Z,95976.88
2022-09-03T11:24:05.935Z,95982.97
2022-09-03T11:26:35.628Z,95981.03
2022-09-03T11:29:10.673Z,95949.13
2022-09-03T11:31:58.230Z,95968.13
2022-09-03T11:34:46.728Z,95988.25
2022-09-03T11:37:25.362Z,95985.03
2022-09-03T11:40:05.406Z,95977.69
2022-09-03T11:42:38.722Z,95991.00
2022-09-03T11:45:17.084Z,95976.94
2022-09-03T11:47:47.589Z,95975.88
2022-09-03T11:50:23.879Z,95979.41
2022-09-03T11:52:57.283Z,95981.69
2022-09-03T11:55:43.309Z,95985.94
2022-09-03T11:58:19.033Z,95962.41
2022-09-03T12:00:53.521Z,95982.72
2022-09-03T12:03:28.264Z,95978.69
2022-09-03T12:06:14.793Z,95978.09
2022-09-03T12:08:59.494Z,95984.13
2022-09-03T12:11:40.531Z,95949.56
2022-09-03T12:14:20.085Z,95981.72
2022-09-03T12:17:11.114Z,95980.06
2022-09-03T12:19:53.620Z,95970.78
2022-09-03T12:22:25.382Z,95976.06
2022-09-03T12:24:56.994Z,95977.25
2022-09-03T12:27:28.300Z,95978.38
2022-09-03T12:30:01.071Z,95982.31
2022-09-03T12:32:32.630Z,95976.44
2022-09-03T12:35:13.247Z,95978.53
2022-09-03T12:40:36.410Z,95972.38
2022-09-03T12:43:38.607Z,95987.72
2022-09-03T12:46:16.500Z,95989.78
2022-09-03T12:51:55.774Z,95968.31
2022-09-03T12:54:27.431Z,95964.59
2022-09-03T12:57:00.627Z,95975.72
2022-09-03T12:59:35.270Z,95960.34
2022-09-03T13:02:12.899Z,95959.94
2022-09-03T13:04:46.061Z,95963.22
2022-09-03T13:07:22.228Z,95960.88
2022-09-03T13:09:51.948Z,95955.00
2022-09-03T13:12:33.322Z,95965.84
2022-09-03T13:15:20.372Z,95902.19
2022-09-03T13:18:12.416Z,95950.19
2022-09-03T13:20:52.425Z,95940.28
2022-09-03T13:23:35.966Z,95943.13
2022-09-03T13:26:20.865Z,95928.34
2022-09-03T13:29:03.424Z,95894.91
2022-09-03T13:31:37.722Z,95930.78
2022-09-03T13:34:10.306Z,95918.53
2022-09-03T13:36:46.736Z,95927.59
2022-09-03T13:39:23.556Z,95936.22
2022-09-03T13:41:57.648Z,95898.59
2022-09-03T13:44:38.357Z,95901.56
2022-09-03T13:47:12.411Z,95929.72
2022-09-03T13:50:08.296Z,95923.59
2022-09-03T13:52:43.240Z,95923.50
2022-09-03T13:55:16.598Z,95922.06
2022-09-03T13:57:52.790Z,95917.38
2022-09-03T14:00:30.233Z,95917.88
2022-09-03T14:03:08.183Z,95920.63
2022-09-03T14:05:46.299Z,95912.38
2022-09-03T14:08:23.857Z,95911.97
2022-09-03T14:11:01.805Z,95923.69
2022-09-03T14:13:40.584Z,95915.97
2022-09-03T14:16:18.652Z,95917.19
2022-09-03T14:18:53.696Z,95918.25
2022-09-03T14:21:26.807Z,95920.53
2022-09-03T14:24:03.277Z,95918.03
2022-09-03T14:26:41.002Z,95918.69
2022-09-03T14:29:17.468Z,95916.59
2022-09-03T14:32:18.167Z,95919.88
2022-09-03T14:34:57.905Z,95920.59
2022-09-03T14:37:40.566Z,95921.44
2022-09-03T14:40:14.965Z,95919.50
2022-09-03T14:42:57.511Z,95918.00
2022-09-03T14:45:50.311Z,95921.41
2022-09-03T14:48:50.552Z,95915.38
2022-09-03T14:51:27.075Z,95845.16
2022-09-03T14:54:11.685Z,95892.47
2022-09-03T14:56:47.919Z,95921.63
2022-09-03T14:59:38.217Z,95917.81
2022-09-03T15:02:26.684Z,95921.84
2022-09-03T15:05:11.748Z,95920.81
2022-09-03T15:07:45.272Z,95919.44
2022-09-03T15:10:22.091Z,95907.72
2022-09-03T15:12:53.432Z,95921.28
2022-09-03T15:15:26.333Z,95916.81
2022-09-03T15:18:06.380Z,95917.13
2022-09-03T15:20:57.371Z,95920.59
2022-09-03T15:23:48.365Z,95926.06
2022-09-03T15:26:32.486Z,95914.00
2022-09-03T15:29:31.903Z,95880.38
2022-09-03T15:32:08.318Z,95923.81
2022-09-03T15:35:01.781Z,95897.69
2022-09-03T15:37:38.358Z,95926.44
2022-09-03T15:40:11.252Z,95918.97
2022-09-03T15:42:44.817Z,95930.66
2022-09-03T15:45:21.251Z,95920.13
2022-09-03T15:47:55.644Z,95924.63
2022-09-03T15:50:33.707Z,95924.44
2022-09-03T15:53:15.079Z,95941.84
2022-09-03T15:55:45.113Z,95937.03
2022-09-03T15:58:20.829Z,95931.81
2022-09-03T16:00:55.272Z,95936.66
2022-09-03T16:03:34.731Z,95953.09
2022-09-03T16:06:06.564Z,95939.66
2022-09-03T16:08:45.139Z,95908.06
2022-09-03T16:11:18.544Z,95941.94
2022-09-03T16:13:57.811Z,95942.44
2022-09-03T16:16:30.899Z,95944.66
2022-09-03T16:19:11.225Z,95936.03
2022-09-03T16:21:45.396Z,95938.78
2022-09-03T16:24:20.108Z,95941.56
2022-09-03T16:26:52.554Z,95943.81
2022-09-03T16:29:27.903Z,95929.34
2022-09-03T16:32:12.602Z,95914.31
2022-09-03T16:34:50.087Z,95947.91
2022-09-03T16:37:25.680Z,95951.69
2022-09-03T16:40:01.898Z,95929.38
2022-09-03T16:42:35.908Z,95944.44
2022-09-03T16:45:16.307Z,95939.56
2022-09-03T16:48:05.934Z,95955.16
2022-09-03T16:50:47.217Z,95944.22
2022-09-03T16:53:17.787Z,95934.75
2022-09-03T16:55:59.491Z,95900.69
2022-09-03T16:58:35.465Z,95904.19
2022-09-03T17:01:13.663Z,95935.06
2022-09-03T17:03:54.847Z,95938.03
2022-09-03T17:06:33.244Z,95936.09
2022-09-03T17:09:14.454Z,95934.56
2022-09-03T17:11:55.575Z,95936.47
2022-09-03T17:14:40.268Z,95938.09
2022-09-03T17:17:17.081Z,95935.97
2022-09-03T17:19:52.327Z,95906.69
2022-09-03T17:22:33.205Z,95932.84
2022-09-03T17:25:06.682Z,95936.34
2022-09-03T17:28:57.717Z,95938.50
2022-09-03T17:31:43.455Z,95928.22
2022-09-03T17:34:17.630Z,95908.16
2022-09-03T17:36:58.616Z,95939.91
2022-09-03T17:40:07.139Z,95921.56
2022-09-03T17:42:49.299Z,95956.53
2022-09-03T17:45:25.015Z,95947.66
2022-09-03T17:48:22.429Z,95944.59
2022-09-03T17:50:55.378Z,95923.44
2022-09-03T17:53:27.018Z,95956.81
2022-09-03T17:55:59.104Z,95910.19
2022-09-03T17:58:32.615Z,95961.66
2022-09-03T18:01:08.152Z,95958.78
2022-09-03T18:03:43.196Z,95953.13
2022-09-03T18:06:20.421Z,95953.47
2022-09-03T18:08:54.692Z,95952.06
2022-09-03T18:11:32.904Z,95949.44
2022-09-03T18:14:11.245Z,95951.59
2022-09-03T18:16:47.698Z,95961.38
2022-09-03T18:19:29.653Z,95942.69
2022-09-03T18:22:18.983Z,95930.34
2022-09-03T18:25:18.684Z,95961.63
2022-09-03T18:28:07.823Z,95968.94
2022-09-03T18:30:54.670Z,95960.97
2022-09-03T18:33:44.543Z,95981.19
2022-09-03T18:36:34.276Z,95980.59
2022-09-03T18:39:34.794Z,95988.69
2022-09-03T18:42:29.691Z,95989.81
2022-09-03T18:45:23.783Z,95982.47
2022-09-03T18:48:20.649Z,95995.75
2022-09-03T18:51:12.487Z,95995.63
2022-09-03T18:54:04.130Z,96002.84
2022-09-03T18:56:55.602Z,96005.31
2022-09-03T18:59:51.574Z,96001.19
2022-09-03T19:02:47.002Z,96002.13
2022-09-03T19:05:36.634Z,95977.69
2022-09-03T19:08:29.534Z,96000.94
2022-09-03T19:11:20.445Z,95997.19
2022-09-03T19:14:06.460Z,95993.56
2022-09-03T19:17:01.909Z,95999.72
2022-09-03T19:20:00.080Z,96002.97
2022-09-03T19:22:48.317Z,96003.78
2022-09-03T19:25:35.661Z,95986.28
2022-09-03T19:28:31.613Z,95997.66
2022-09-03T19:31:42.319Z,95983.91
2022-09-03T19:34:36.749Z,95985.56
2022-09-03T19:37:26.125Z,96007.59
2022-09-03T19:40:23.076Z,96012.69
2022-09-03T19:43:17.145Z,96023.72
2022-09-03T19:46:12.765Z,96034.75
2022-09-03T19:49:16.728Z,96044.44
2022-09-03T19:52:08.406Z,96052.09
2022-09-03T19:54:54.741Z,96054.50
2022-09-03T19:57:40.276Z,96048.66
2022-09-03T20:00:32.575Z,96042.69
2022-09-03T20:03:20.977Z,96045.47
2022-09-03T20:06:10.934Z,96049.84
2022-09-03T20:08:57.076Z,96060.03
2022-09-03T20:11:27.772Z,96066.03
2022-09-03T20:14:15.325Z,96056.81
2022-09-03T20:16:53.145Z,96072.19
2022-09-03T20:19:30.336Z,96072.50
2022-09-03T20:22:03.006Z,96068.66
2022-09-03T20:24:40.279Z,96075.59
2022-09-03T20:27:17.311Z,96077.06
2022-09-03T20:29:57.038Z,96086.28
2022-09-03T20:33:00.701Z,96080.47
2022-09-03T20:35:39.137Z,96091.16
2022-09-03T20:38:19.968Z,96096.84
2022-09-03T20:40:55.605Z,96102.69
2022-09-03T20:43:40.329Z,96100.75
2022-09-03T20:46:32.346Z,96110.47
2022-09-03T20:49:07.777Z,96103.81
2022-09-03T20:51:39.825Z,96123.91
2022-09-03T20:54:17.123Z,96129.13
2022-09-03T20:56:59.332Z,96131.59
2022-09-03T20:59:35.118Z,96135.50
2022-09-03T21:02:11.486Z,96114.56
2022-09-03T21:04:52.125Z,96146.50
2022-09-03T21:07:26.040Z,96136.78
2022-09-03T21:10:00.897Z,96146.84
2022-09-03T21:12:36.844Z,96148.13
2022-09-03T21:15:10.605Z,96122.84
2022-09-03T21:17:47.367Z,96152.81
2022-09-03T21:20:23.575Z,96159.28
2022-09-03T21:23:02.264Z,96147.78
2022-09-03T21:25:34.719Z,96118.28
2022-09-03T21:28:06.395Z,96158.16
2022-09-03T21:30:38.210Z,96159.78
2022-09-03T21:33:10.204Z,96153.13
2022-09-03T21:35:43.929Z,96163.34
2022-09-03T21:38:15.645Z,96162.38
2022-09-03T21:40:49.015Z,96164.81
2022-09-03T21:43:19.289Z,96175.19
2022-09-03T21:45:53.392Z,96157.16
2022-09-03T21:48:24.380Z,96136.06
2022-09-03T21:50:56.680Z,96171.06
2022-09-03T21:53:28.691Z,96163.75
2022-09-03T21:56:26.954Z,96170.03
2022-09-03T21:59:09.212Z,96160.97
2022-09-03T22:01:48.105Z,96163.84
2022-09-03T22:04:16.520Z,96163.41
2022-09-03T22:06:51.269Z,96159.16
2022-09-03T22:09:24.708Z,96164.50
2022-09-03T22:12:01.792Z,96175.34
2022-09-03T22:14:35.094Z,96169.84
2022-09-03T22:17:08.961Z,96168.25
2022-09-03T22:19:38.971Z,96168.09
2022-09-03T22:22:13.977Z,96168.41
2022-09-03T22:24:45.900Z,96165.66
2022-09-03T22:27:19.588Z,96173.59
2022-09-03T22:29:54.625Z,96178.44
2022-09-03T22:32:33.828Z,96178.91
2022-09-03T22:35:11.020Z,96144.69
2022-09-03T22:37:54.386Z,96169.69
2022-09-03T22:40:26.660Z,96176.47
2022-09-03T22:43:03.250Z,96191.06
2022-09-03T22:45:44.184Z,96191.06
2022-09-03T22:48:22.477Z,96166.59
2022-09-03T22:50:55.455Z,96174.50
2022-09-03T22:53:35.923Z,96175.19
2022-09-03T22:56:09.163Z,96176.13
2022-09-03T22:58:42.773Z,96177.94
2022-09-03T23:01:16.987Z,96182.28
2022-09-03T23:03:52.319Z,96173.19
2022-09-03T23:06:25.665Z,96177.44
2022-09-03T23:08:58.487Z,96173.19
2022-09-03T23:11:28.321Z,96180.31
2022-09-03T23:14:01.874Z,96185.19
2022-09-03T23:16:37.868Z,96184.22
2022-09-03T23:21:52.317Z,96184.72
2022-09-03T23:24:28.640Z,96180.34
2022-09-03T23:26:56.964Z,96180.31
2022-09-03T23:29:29.163Z,96175.59
2022-09-03T23:31:58.353Z,96177.72
2022-09-03T23:34:26.976Z,96176.09
2022-09-03T23:37:32.066Z,96143.34
2022-09-03T23:40:12.885Z,96162.34
2022-09-03T23:42:52.135Z,96163.81
2022-09-03T23:45:26.030Z,96148.59
2022-09-03T23:47:59.112Z,96164.31
2022-09-03T23:50:33.160Z,96172.53
2022-09-03T23:53:10.863Z,96163.31
2022-09-03T23:55:50.172Z,96157.31
2022-09-03T23:58:30.830Z,96168.16
